createdAt,value
2022-08-02T00:00:40.954Z,0.00
2022-08-02T00:01:41.063Z,0.00
2022-08-02T00:02:41.275Z,0.00
2022-08-02T00:03:41.165Z,0.00
2022-08-02T00:04:41.099Z,0.00
2022-08-02T00:05:41.131Z,0.00
2022-08-02T00:06:41.168Z,0.00
2022-08-02T00:07:41.602Z,0.00
2022-08-02T00:08:41.237Z,0.00
2022-08-02T00:09:41.574Z,0.00
2022-08-02T00:10:41.311Z,0.00
2022-08-02T00:11:43.212Z,0.00
2022-08-02T00:12:41.377Z,0.00
2022-08-02T00:13:41.415Z,0.00
2022-08-02T00:14:41.450Z,0.00
2022-08-02T00:15:41.487Z,0.00
2022-08-02T00:16:41.773Z,0.00
2022-08-02T00:17:41.556Z,0.00
2022-08-02T00:18:41.601Z,0.00
2022-08-02T00:19:41.627Z,0.00
2022-08-02T00:20:41.664Z,0.00
2022-08-02T00:21:41.702Z,0.00
2022-08-02T00:22:41.734Z,0.00
2022-08-02T00:24:03.279Z,0.00
2022-08-02T00:24:41.800Z,0.00
2022-08-02T00:25:55.365Z,0.00
2022-08-02T00:26:41.876Z,0.00
2022-08-02T00:27:41.906Z,0.00
2022-08-02T00:28:41.940Z,0.00
2022-08-02T00:29:42.608Z,0.00
2022-08-02T00:30:42.017Z,0.00
2022-08-02T00:31:42.047Z,0.00
2022-08-02T00:32:42.082Z,0.00
2022-08-02T00:34:26.846Z,0.00
2022-08-02T00:34:42.160Z,0.00
2022-08-02T00:35:42.193Z,0.00
2022-08-02T00:36:42.524Z,0.00
2022-08-02T00:37:42.262Z,0.00
2022-08-02T00:38:42.295Z,0.00
2022-08-02T00:39:42.335Z,0.00
2022-08-02T00:40:42.365Z,0.00
2022-08-02T00:41:42.401Z,0.00
2022-08-02T00:42:42.432Z,0.00
2022-08-02T00:43:42.721Z,0.00
2022-08-02T00:44:42.506Z,0.00
2022-08-02T00:46:02.660Z,0.00
2022-08-02T00:46:42.568Z,0.00
2022-08-02T00:48:43.064Z,0.00
2022-08-02T00:49:42.669Z,0.00
2022-08-02T00:50:43.006Z,0.00
2022-08-02T00:51:42.735Z,0.00
2022-08-02T00:52:42.773Z,0.00
2022-08-02T00:53:42.808Z,0.00
2022-08-02T00:54:42.845Z,0.00
2022-08-02T00:55:42.872Z,0.00
2022-08-02T00:56:49.780Z,0.00
2022-08-02T00:57:43.194Z,0.00
2022-08-02T00:58:42.978Z,0.00
2022-08-02T00:59:43.011Z,0.00
2022-08-02T01:00:43.050Z,0.00
2022-08-02T01:01:55.909Z,0.00
2022-08-02T01:03:43.154Z,0.00
2022-08-02T01:04:43.438Z,0.00
2022-08-02T01:06:02.187Z,0.00
2022-08-02T01:06:43.261Z,0.00
2022-08-02T01:07:43.290Z,0.00
2022-08-02T01:08:44.444Z,0.00
2022-08-02T01:09:43.366Z,0.00
2022-08-02T01:10:43.694Z,0.00
2022-08-02T01:11:43.430Z,0.00
2022-08-02T01:12:43.467Z,0.00
2022-08-02T01:13:43.503Z,0.00
2022-08-02T01:14:43.547Z,0.00
2022-08-02T01:15:43.572Z,0.00
2022-08-02T01:16:43.857Z,0.00
2022-08-02T01:17:43.643Z,0.00
2022-08-02T01:18:43.674Z,0.00
2022-08-02T01:19:43.711Z,0.00
2022-08-02T01:20:43.744Z,0.00
2022-08-02T01:21:43.779Z,0.00
2022-08-02T01:23:03.715Z,0.00
2022-08-02T01:23:43.849Z,0.00
2022-08-02T01:24:43.884Z,0.00
2022-08-02T01:25:43.919Z,0.00
2022-08-02T01:26:43.953Z,0.00
2022-08-02T01:27:43.992Z,0.00
2022-08-02T01:28:44.027Z,0.00
2022-08-02T01:29:44.310Z,0.00
2022-08-02T01:30:44.093Z,0.00
2022-08-02T01:31:44.133Z,0.00
2022-08-02T01:32:44.163Z,0.00
2022-08-02T01:33:44.200Z,0.00
2022-08-02T01:34:44.235Z,0.00
2022-08-02T01:35:50.458Z,0.00
2022-08-02T01:36:44.557Z,0.00
2022-08-02T01:37:44.340Z,0.00
2022-08-02T01:38:44.378Z,0.00
2022-08-02T01:39:44.410Z,0.00
2022-08-02T01:40:44.443Z,0.00
2022-08-02T01:41:44.480Z,0.00
2022-08-02T01:42:44.516Z,0.00
2022-08-02T01:43:44.800Z,0.00
2022-08-02T01:44:44.587Z,0.00
2022-08-02T01:45:44.621Z,0.00
2022-08-02T01:46:44.651Z,0.00
2022-08-02T01:48:44.724Z,0.00
2022-08-02T01:49:44.903Z,0.00
2022-08-02T01:50:45.043Z,0.00
2022-08-02T01:51:44.833Z,0.00
2022-08-02T01:52:52.945Z,0.00
2022-08-02T01:53:44.896Z,0.00
2022-08-02T01:55:57.524Z,0.00
2022-08-02T01:56:45.005Z,0.00
2022-08-02T01:57:45.292Z,0.00
2022-08-02T01:58:45.081Z,0.00
2022-08-02T01:59:45.108Z,0.00
2022-08-02T02:00:45.140Z,0.00
2022-08-02T02:01:45.232Z,0.00
2022-08-02T02:02:45.233Z,0.00
2022-08-02T02:03:45.249Z,0.00
2022-08-02T02:04:45.531Z,0.00
2022-08-02T02:05:45.326Z,0.00
2022-08-02T02:06:45.356Z,0.00
2022-08-02T02:07:45.393Z,0.00
2022-08-02T02:08:45.421Z,0.00
2022-08-02T02:09:50.515Z,0.00
2022-08-02T02:12:45.562Z,0.00
2022-08-02T02:13:45.848Z,0.00
2022-08-02T02:14:49.213Z,0.00
2022-08-02T02:15:45.667Z,0.00
2022-08-02T02:16:45.701Z,0.00
2022-08-02T02:18:10.566Z,0.00
2022-08-02T02:18:45.798Z,0.00
2022-08-02T02:19:45.808Z,0.00
2022-08-02T02:20:46.092Z,0.00
2022-08-02T02:21:45.879Z,0.00
2022-08-02T02:22:45.919Z,0.00
2022-08-02T02:23:45.947Z,0.00
2022-08-02T02:24:45.982Z,0.00
2022-08-02T02:26:52.448Z,0.00
2022-08-02T02:27:46.342Z,0.00
2022-08-02T02:28:46.120Z,0.00
2022-08-02T02:29:46.156Z,0.00
2022-08-02T02:30:46.197Z,0.00
2022-08-02T02:31:46.225Z,0.00
2022-08-02T02:32:46.260Z,0.00
2022-08-02T02:33:46.295Z,0.00
2022-08-02T02:34:46.583Z,0.00
2022-08-02T02:35:46.365Z,0.00
2022-08-02T02:36:46.409Z,0.00
2022-08-02T02:37:46.434Z,0.00
2022-08-02T02:38:46.470Z,0.00
2022-08-02T02:39:46.506Z,0.00
2022-08-02T02:40:46.540Z,0.00
2022-08-02T02:41:46.876Z,0.00
2022-08-02T02:42:49.361Z,0.00
2022-08-02T02:43:46.643Z,0.00
2022-08-02T02:45:46.715Z,0.00
2022-08-02T02:46:46.749Z,0.00
2022-08-02T02:47:46.885Z,0.00
2022-08-02T02:48:47.119Z,0.00
2022-08-02T02:49:46.865Z,0.00
2022-08-02T02:50:46.888Z,0.00
2022-08-02T02:51:46.931Z,0.00
2022-08-02T02:52:46.960Z,0.00
2022-08-02T02:54:30.182Z,0.00
2022-08-02T02:54:47.328Z,0.00
2022-08-02T02:56:01.995Z,0.00
2022-08-02T02:56:47.100Z,0.00
2022-08-02T02:57:47.133Z,0.00
2022-08-02T02:58:47.172Z,0.00
2022-08-02T03:00:47.294Z,0.00
2022-08-02T03:02:47.608Z,0.00
2022-08-02T03:03:47.345Z,0.00
2022-08-02T03:04:57.267Z,0.00
2022-08-02T03:06:47.450Z,0.00
2022-08-02T03:07:47.482Z,0.00
2022-08-02T03:08:47.521Z,0.00
2022-08-02T03:09:54.370Z,0.00
2022-08-02T03:10:47.588Z,0.00
2022-08-02T03:11:47.622Z,0.00
2022-08-02T03:12:47.660Z,0.00
2022-08-02T03:13:47.693Z,0.00
2022-08-02T03:14:49.473Z,0.00
2022-08-02T03:15:47.772Z,0.00
2022-08-02T03:16:48.111Z,0.00
2022-08-02T03:17:47.831Z,0.00
2022-08-02T03:18:47.873Z,0.00
2022-08-02T03:19:47.903Z,0.00
2022-08-02T03:20:47.948Z,0.00
2022-08-02T03:21:47.969Z,0.00
2022-08-02T03:22:48.014Z,0.00
2022-08-02T03:23:48.291Z,0.00
2022-08-02T03:24:49.505Z,0.00
2022-08-02T03:25:48.111Z,0.00
2022-08-02T03:26:48.146Z,0.00
2022-08-02T03:27:48.185Z,0.00
2022-08-02T03:28:48.219Z,0.00
2022-08-02T03:29:48.254Z,0.00
2022-08-02T03:31:48.572Z,0.00
2022-08-02T03:33:48.390Z,0.00
2022-08-02T03:34:48.429Z,0.00
2022-08-02T03:35:48.463Z,0.00
2022-08-02T03:36:48.497Z,0.00
2022-08-02T03:37:48.529Z,0.00
2022-08-02T03:38:48.872Z,0.00
2022-08-02T03:39:52.928Z,0.00
2022-08-02T03:40:48.635Z,0.00
2022-08-02T03:41:48.672Z,0.00
2022-08-02T03:42:48.705Z,0.00
2022-08-02T03:43:48.751Z,0.00
2022-08-02T03:44:48.778Z,0.00
2022-08-02T03:45:49.063Z,0.00
2022-08-02T03:46:48.847Z,0.00
2022-08-02T03:47:48.877Z,0.00
2022-08-02T03:48:48.934Z,0.00
2022-08-02T03:49:48.955Z,0.00
2022-08-02T03:50:48.985Z,0.00
2022-08-02T03:51:49.016Z,0.00
2022-08-02T03:52:49.355Z,0.00
2022-08-02T03:53:49.093Z,0.00
2022-08-02T03:54:49.126Z,0.00
2022-08-02T03:55:49.156Z,0.00
2022-08-02T03:56:49.199Z,0.00
2022-08-02T03:57:49.236Z,0.00
2022-08-02T03:58:49.589Z,0.00
2022-08-02T03:59:49.298Z,0.00
2022-08-02T04:00:49.405Z,0.00
2022-08-02T04:02:49.403Z,0.00
2022-08-02T04:03:49.446Z,0.00
2022-08-02T04:04:49.774Z,0.00
2022-08-02T04:06:04.075Z,0.00
2022-08-02T04:08:01.171Z,0.00
2022-08-02T04:08:49.612Z,0.00
2022-08-02T04:09:49.647Z,0.00
2022-08-02T04:10:49.932Z,5.63
2022-08-02T04:11:49.715Z,5.63
2022-08-02T04:12:49.754Z,5.63
2022-08-02T04:13:49.946Z,5.63
2022-08-02T04:14:49.832Z,5.63
2022-08-02T04:15:49.853Z,5.63
2022-08-02T04:16:49.909Z,5.63
2022-08-02T04:17:50.177Z,5.63
2022-08-02T04:19:49.995Z,5.63
2022-08-02T04:20:50.028Z,5.63
2022-08-02T04:21:52.107Z,5.63
2022-08-02T04:22:50.128Z,5.63
2022-08-02T04:23:50.137Z,5.63
2022-08-02T04:24:50.418Z,5.63
2022-08-02T04:25:51.493Z,11.25
2022-08-02T04:26:50.243Z,11.25
2022-08-02T04:28:15.316Z,11.25
2022-08-02T04:28:50.310Z,11.25
2022-08-02T04:29:50.344Z,11.25
2022-08-02T04:30:50.386Z,11.25
2022-08-02T04:31:50.717Z,11.25
2022-08-02T04:32:50.447Z,11.25
2022-08-02T04:33:50.487Z,11.25
2022-08-02T04:35:17.828Z,11.25
2022-08-02T04:35:50.555Z,11.25
2022-08-02T04:36:50.587Z,11.25
2022-08-02T04:38:08.952Z,11.25
2022-08-02T04:38:50.660Z,16.88
2022-08-02T04:39:50.690Z,16.88
2022-08-02T04:40:50.731Z,16.88
2022-08-02T04:41:53.394Z,16.88
2022-08-02T04:42:50.796Z,16.88
2022-08-02T04:43:50.832Z,16.88
2022-08-02T04:44:51.123Z,16.88
2022-08-02T04:45:50.904Z,16.88
2022-08-02T04:46:50.936Z,16.88
2022-08-02T04:48:02.227Z,16.88
2022-08-02T04:48:51.071Z,22.50
2022-08-02T04:49:51.041Z,22.50
2022-08-02T04:50:51.080Z,22.50
2022-08-02T04:52:51.444Z,22.50
2022-08-02T04:53:51.187Z,22.50
2022-08-02T04:54:51.217Z,22.50
2022-08-02T04:55:51.248Z,22.50
2022-08-02T04:56:51.284Z,28.13
2022-08-02T04:57:52.848Z,28.13
2022-08-02T04:58:51.356Z,28.13
2022-08-02T04:59:54.579Z,28.13
2022-08-02T05:00:51.496Z,28.13
2022-08-02T05:01:51.474Z,28.13
2022-08-02T05:02:51.497Z,28.13
2022-08-02T05:03:51.526Z,28.13
2022-08-02T05:04:51.561Z,28.13
2022-08-02T05:05:51.599Z,28.13
2022-08-02T05:06:51.931Z,28.13
2022-08-02T05:07:51.672Z,33.75
2022-08-02T05:09:51.764Z,33.75
2022-08-02T05:10:51.772Z,33.75
2022-08-02T05:11:55.132Z,33.75
2022-08-02T05:12:51.839Z,33.75
2022-08-02T05:13:58.084Z,33.75
2022-08-02T05:14:51.913Z,39.38
2022-08-02T05:15:51.943Z,39.38
2022-08-02T05:16:51.989Z,39.38
2022-08-02T05:17:52.016Z,39.38
2022-08-02T05:18:52.055Z,39.38
2022-08-02T05:19:52.084Z,39.38
2022-08-02T05:20:57.831Z,39.38
2022-08-02T05:21:52.165Z,39.38
2022-08-02T05:22:52.188Z,39.38
2022-08-02T05:23:52.220Z,45.00
2022-08-02T05:24:52.257Z,45.00
2022-08-02T05:25:52.299Z,45.00
2022-08-02T05:26:52.336Z,45.00
2022-08-02T05:27:52.616Z,45.00
2022-08-02T05:28:52.398Z,39.38
2022-08-02T05:29:53.768Z,39.38
2022-08-02T05:30:52.469Z,39.38
2022-08-02T05:31:52.512Z,39.38
2022-08-02T05:32:52.563Z,39.38
2022-08-02T05:33:52.572Z,39.38
2022-08-02T05:34:53.423Z,39.38
2022-08-02T05:35:52.642Z,39.38
2022-08-02T05:36:52.680Z,39.38
2022-08-02T05:37:52.709Z,39.38
2022-08-02T05:38:52.746Z,39.38
2022-08-02T05:39:55.913Z,39.38
2022-08-02T05:40:54.542Z,33.75
2022-08-02T05:41:52.849Z,33.75
2022-08-02T05:42:52.889Z,33.75
2022-08-02T05:43:52.921Z,39.38
2022-08-02T05:44:52.954Z,39.38
2022-08-02T05:45:52.989Z,39.38
2022-08-02T05:46:53.324Z,39.38
2022-08-02T05:47:53.063Z,39.38
2022-08-02T05:48:53.413Z,39.38
2022-08-02T05:49:53.127Z,39.38
2022-08-02T05:50:53.168Z,39.38
2022-08-02T05:51:53.196Z,39.38
2022-08-02T05:52:53.482Z,39.38
2022-08-02T05:53:53.268Z,39.38
2022-08-02T05:54:53.303Z,33.75
2022-08-02T05:55:53.340Z,33.75
2022-08-02T05:56:53.390Z,33.75
2022-08-02T05:57:53.407Z,33.75
2022-08-02T05:59:53.478Z,39.38
2022-08-02T06:00:53.763Z,39.38
2022-08-02T06:01:53.638Z,33.75
2022-08-02T06:02:53.582Z,33.75
2022-08-02T06:03:53.623Z,33.75
2022-08-02T06:04:53.651Z,33.75
2022-08-02T06:05:53.688Z,39.38
2022-08-02T06:06:54.021Z,39.38
2022-08-02T06:07:53.757Z,45.00
2022-08-02T06:08:53.789Z,45.00
2022-08-02T06:09:53.825Z,45.00
2022-08-02T06:10:53.859Z,45.00
2022-08-02T06:12:53.932Z,45.00
2022-08-02T06:13:54.213Z,45.00
2022-08-02T06:14:54.556Z,45.00
2022-08-02T06:15:54.043Z,45.00
2022-08-02T06:16:54.073Z,45.00
2022-08-02T06:17:54.102Z,45.00
2022-08-02T06:18:54.148Z,45.00
2022-08-02T06:19:54.178Z,45.00
2022-08-02T06:20:54.523Z,45.00
2022-08-02T06:21:54.281Z,45.00
2022-08-02T06:22:54.288Z,45.00
2022-08-02T06:23:59.206Z,45.00
2022-08-02T06:24:54.353Z,45.00
2022-08-02T06:25:54.394Z,45.00
2022-08-02T06:26:54.418Z,45.00
2022-08-02T06:27:54.755Z,45.00
2022-08-02T06:28:54.494Z,45.00
2022-08-02T06:29:54.524Z,45.00
2022-08-02T06:30:54.559Z,45.00
2022-08-02T06:31:54.606Z,45.00
2022-08-02T06:32:54.630Z,45.00
2022-08-02T06:33:54.663Z,45.00
2022-08-02T06:34:54.999Z,50.63
2022-08-02T06:35:54.733Z,50.63
2022-08-02T06:36:54.767Z,50.63
2022-08-02T06:37:58.794Z,50.63
2022-08-02T06:38:54.840Z,50.63
2022-08-02T06:39:54.874Z,50.63
2022-08-02T06:40:54.908Z,50.63
2022-08-02T06:41:55.191Z,50.63
2022-08-02T06:42:54.978Z,50.63
2022-08-02T06:44:57.792Z,50.63
2022-08-02T06:45:55.085Z,50.63
2022-08-02T06:47:11.162Z,50.63
2022-08-02T06:47:55.153Z,50.63
2022-08-02T06:48:55.481Z,50.63
2022-08-02T06:49:55.265Z,56.25
2022-08-02T06:50:55.258Z,56.25
2022-08-02T06:51:55.301Z,56.25
2022-08-02T06:52:55.332Z,56.25
2022-08-02T06:53:55.371Z,56.25
2022-08-02T06:54:55.397Z,56.25
2022-08-02T06:55:55.734Z,56.25
2022-08-02T06:56:55.468Z,56.25
2022-08-02T06:57:55.507Z,56.25
2022-08-02T06:58:55.543Z,56.25
2022-08-02T06:59:55.580Z,56.25
2022-08-02T07:00:55.612Z,56.25
2022-08-02T07:01:55.676Z,56.25
2022-08-02T07:02:56.021Z,56.25
2022-08-02T07:03:55.722Z,56.25
2022-08-02T07:04:55.751Z,56.25
2022-08-02T07:05:55.784Z,56.25
2022-08-02T07:06:55.820Z,56.25
2022-08-02T07:07:55.862Z,56.25
2022-08-02T07:09:19.479Z,56.25
2022-08-02T07:10:01.269Z,56.25
2022-08-02T07:10:55.962Z,56.25
2022-08-02T07:12:59.621Z,56.25
2022-08-02T07:13:56.066Z,56.25
2022-08-02T07:14:56.103Z,56.25
2022-08-02T07:15:56.135Z,56.25
2022-08-02T07:16:56.425Z,56.25
2022-08-02T07:17:56.210Z,56.25
2022-08-02T07:18:56.243Z,56.25
2022-08-02T07:19:56.277Z,56.25
2022-08-02T07:20:56.312Z,56.25
2022-08-02T07:22:56.637Z,56.25
2022-08-02T07:23:56.421Z,56.25
2022-08-02T07:24:56.482Z,56.25
2022-08-02T07:26:01.766Z,56.25
2022-08-02T07:27:10.549Z,56.25
2022-08-02T07:27:56.605Z,56.25
2022-08-02T07:28:56.848Z,56.25
2022-08-02T07:29:56.640Z,56.25
2022-08-02T07:30:56.762Z,56.25
2022-08-02T07:31:57.581Z,56.25
2022-08-02T07:32:57.332Z,56.25
2022-08-02T07:33:57.046Z,56.25
2022-08-02T07:34:57.739Z,56.25
2022-08-02T07:35:57.150Z,56.25
2022-08-02T07:36:56.878Z,56.25
2022-08-02T07:38:00.955Z,56.25
2022-08-02T07:38:56.977Z,56.25
2022-08-02T07:39:56.984Z,56.25
2022-08-02T07:40:57.017Z,56.25
2022-08-02T07:41:57.307Z,56.25
2022-08-02T07:43:02.938Z,56.25
2022-08-02T07:43:57.175Z,56.25
2022-08-02T07:44:57.162Z,56.25
2022-08-02T07:46:00.918Z,56.25
2022-08-02T07:47:57.270Z,56.25
2022-08-02T07:48:57.671Z,56.25
2022-08-02T07:50:57.372Z,56.25
2022-08-02T07:51:57.412Z,56.25
2022-08-02T07:52:57.829Z,56.25
2022-08-02T07:54:02.702Z,56.25
2022-08-02T07:54:57.519Z,56.25
2022-08-02T07:55:57.814Z,56.25
2022-08-02T07:56:58.565Z,56.25
2022-08-02T07:57:57.621Z,50.63
2022-08-02T07:58:57.654Z,56.25
2022-08-02T07:59:57.692Z,56.25
2022-08-02T08:00:57.730Z,56.25
2022-08-02T08:01:57.811Z,56.25
2022-08-02T08:02:58.978Z,56.25
2022-08-02T08:03:57.836Z,56.25
2022-08-02T08:04:57.969Z,56.25
2022-08-02T08:05:57.914Z,56.25
2022-08-02T08:06:57.939Z,56.25
2022-08-02T08:07:57.985Z,61.88
2022-08-02T08:08:58.012Z,61.88
2022-08-02T08:09:58.300Z,61.88
2022-08-02T08:10:58.079Z,61.88
2022-08-02T08:11:58.129Z,61.88
2022-08-02T08:12:58.151Z,61.88
2022-08-02T08:13:58.187Z,61.88
2022-08-02T08:14:58.267Z,61.88
2022-08-02T08:15:58.261Z,61.88
2022-08-02T08:16:58.593Z,61.88
2022-08-02T08:17:58.330Z,61.88
2022-08-02T08:18:58.363Z,61.88
2022-08-02T08:19:58.403Z,67.50
2022-08-02T08:20:58.441Z,67.50
2022-08-02T08:21:58.473Z,67.50
2022-08-02T08:22:58.506Z,67.50
2022-08-02T08:23:58.800Z,67.50
2022-08-02T08:24:58.578Z,67.50
2022-08-02T08:25:58.644Z,67.50
2022-08-02T08:26:58.648Z,67.50
2022-08-02T08:27:58.688Z,67.50
2022-08-02T08:28:58.725Z,67.50
2022-08-02T08:29:58.757Z,67.50
2022-08-02T08:30:59.093Z,73.13
2022-08-02T08:31:58.826Z,73.13
2022-08-02T08:32:58.863Z,73.13
2022-08-02T08:33:58.901Z,73.13
2022-08-02T08:34:58.937Z,73.13
2022-08-02T08:35:58.969Z,67.50
2022-08-02T08:36:59.005Z,67.50
2022-08-02T08:38:01.987Z,67.50
2022-08-02T08:38:59.081Z,67.50
2022-08-02T08:40:59.260Z,73.13
2022-08-02T08:41:59.186Z,73.13
2022-08-02T08:42:59.220Z,67.50
2022-08-02T08:43:59.255Z,67.50
2022-08-02T08:44:59.594Z,67.50
2022-08-02T08:45:59.327Z,67.50
2022-08-02T08:47:59.399Z,67.50
2022-08-02T08:49:59.473Z,67.50
2022-08-02T08:50:59.563Z,67.50
2022-08-02T08:51:59.842Z,67.50
2022-08-02T08:52:59.578Z,61.88
2022-08-02T08:53:59.613Z,61.88
2022-08-02T08:54:59.650Z,61.88
2022-08-02T08:55:59.688Z,61.88
2022-08-02T08:56:59.780Z,61.88
2022-08-02T08:57:59.756Z,61.88
2022-08-02T08:59:00.096Z,67.50
2022-08-02T08:59:59.855Z,67.50
2022-08-02T09:00:59.953Z,67.50
2022-08-02T09:01:59.945Z,67.50
2022-08-02T09:02:59.945Z,67.50
2022-08-02T09:03:59.974Z,67.50
2022-08-02T09:05:00.337Z,67.50
2022-08-02T09:06:00.048Z,67.50
2022-08-02T09:07:00.087Z,67.50
2022-08-02T09:08:00.113Z,67.50
2022-08-02T09:09:00.249Z,67.50
2022-08-02T09:10:00.215Z,67.50
2022-08-02T09:11:00.523Z,73.13
2022-08-02T09:12:00.263Z,73.13
2022-08-02T09:13:00.298Z,73.13
2022-08-02T09:14:00.336Z,73.13
2022-08-02T09:15:00.374Z,73.13
2022-08-02T09:16:00.926Z,78.75
2022-08-02T09:17:00.735Z,78.75
2022-08-02T09:18:00.477Z,84.38
2022-08-02T09:19:01.740Z,84.38
2022-08-02T09:20:00.549Z,90.00
2022-08-02T09:21:00.580Z,95.63
2022-08-02T09:22:00.617Z,101.25
2022-08-02T09:23:00.655Z,112.50
2022-08-02T09:24:01.012Z,118.13
2022-08-02T09:25:00.728Z,129.38
2022-08-02T09:26:03.364Z,140.63
2022-08-02T09:27:00.800Z,157.50
2022-08-02T09:28:00.843Z,157.50
2022-08-02T09:29:00.882Z,151.88
2022-08-02T09:30:12.827Z,151.88
2022-08-02T09:31:01.191Z,140.63
2022-08-02T09:32:00.980Z,129.38
2022-08-02T09:33:05.500Z,118.13
2022-08-02T09:34:01.062Z,106.88
2022-08-02T09:35:01.101Z,106.88
2022-08-02T09:36:05.230Z,95.63
2022-08-02T09:37:01.158Z,95.63
2022-08-02T09:38:01.448Z,95.63
2022-08-02T09:39:01.230Z,95.63
2022-08-02T09:40:01.264Z,101.25
2022-08-02T09:41:01.303Z,101.25
2022-08-02T09:42:01.342Z,101.25
2022-08-02T09:43:01.399Z,106.88
2022-08-02T09:44:04.854Z,101.25
2022-08-02T09:45:01.698Z,95.63
2022-08-02T09:46:01.487Z,101.25
2022-08-02T09:47:01.529Z,101.25
2022-08-02T09:48:01.570Z,101.25
2022-08-02T09:49:01.677Z,106.88
2022-08-02T09:50:01.635Z,112.50
2022-08-02T09:51:01.664Z,118.13
2022-08-02T09:52:01.957Z,123.75
2022-08-02T09:53:01.738Z,123.75
2022-08-02T09:54:08.577Z,129.38
2022-08-02T09:55:01.812Z,129.38
2022-08-02T09:56:01.846Z,135.00
2022-08-02T09:57:01.892Z,140.63
2022-08-02T09:58:01.922Z,146.25
2022-08-02T09:59:02.209Z,146.25
2022-08-02T10:00:02.001Z,151.88
2022-08-02T10:01:02.094Z,151.88
2022-08-02T10:02:04.359Z,157.50
2022-08-02T10:03:02.103Z,163.13
2022-08-02T10:04:02.139Z,163.13
2022-08-02T10:05:02.174Z,168.75
2022-08-02T10:06:03.101Z,168.75
2022-08-02T10:07:02.250Z,168.75
2022-08-02T10:08:02.289Z,174.38
2022-08-02T10:09:02.321Z,168.75
2022-08-02T10:10:02.358Z,157.50
2022-08-02T10:11:02.395Z,157.50
2022-08-02T10:12:08.836Z,157.50
2022-08-02T10:13:02.722Z,157.50
2022-08-02T10:14:02.508Z,151.88
2022-08-02T10:15:02.554Z,146.25
2022-08-02T10:16:02.631Z,140.63
2022-08-02T10:17:02.636Z,140.63
2022-08-02T10:18:17.518Z,129.38
2022-08-02T10:19:02.684Z,123.75
2022-08-02T10:20:04.959Z,118.13
2022-08-02T10:22:02.802Z,106.88
2022-08-02T10:23:02.836Z,101.25
2022-08-02T10:24:02.871Z,95.63
2022-08-02T10:25:02.910Z,95.63
2022-08-02T10:26:02.943Z,95.63
2022-08-02T10:28:05.482Z,95.63
2022-08-02T10:29:03.050Z,101.25
2022-08-02T10:30:03.105Z,106.88
2022-08-02T10:31:04.768Z,118.13
2022-08-02T10:32:03.159Z,118.13
2022-08-02T10:33:03.197Z,118.13
2022-08-02T10:34:03.493Z,112.50
2022-08-02T10:35:19.892Z,106.88
2022-08-02T10:36:04.632Z,106.88
2022-08-02T10:37:04.216Z,106.88
2022-08-02T10:38:04.507Z,112.50
2022-08-02T10:39:04.423Z,118.13
2022-08-02T10:40:05.325Z,118.13
2022-08-02T10:41:04.169Z,118.13
2022-08-02T10:42:04.347Z,118.13
2022-08-02T10:43:03.566Z,112.50
2022-08-02T10:44:03.601Z,106.88
2022-08-02T10:45:03.635Z,106.88
2022-08-02T10:46:03.989Z,112.50
2022-08-02T10:47:03.720Z,118.13
2022-08-02T10:48:03.850Z,123.75
2022-08-02T10:49:23.997Z,129.38
2022-08-02T10:50:03.863Z,135.00
2022-08-02T10:51:03.857Z,135.00
2022-08-02T10:52:04.192Z,135.00
2022-08-02T10:53:03.932Z,129.38
2022-08-02T10:54:03.970Z,123.75
2022-08-02T10:55:04.003Z,118.13
2022-08-02T10:56:04.039Z,118.13
2022-08-02T10:57:04.087Z,118.13
2022-08-02T10:58:04.129Z,118.13
2022-08-02T10:59:04.505Z,123.75
2022-08-02T11:00:04.201Z,129.38
2022-08-02T11:01:04.290Z,135.00
2022-08-02T11:02:04.260Z,135.00
2022-08-02T11:03:04.294Z,135.00
2022-08-02T11:04:09.742Z,135.00
2022-08-02T11:05:04.368Z,135.00
2022-08-02T11:06:04.658Z,135.00
2022-08-02T11:07:04.442Z,140.63
2022-08-02T11:08:04.482Z,146.25
2022-08-02T11:09:04.535Z,157.50
2022-08-02T11:10:04.554Z,163.13
2022-08-02T11:11:04.587Z,168.75
2022-08-02T11:12:04.630Z,163.13
2022-08-02T11:13:04.962Z,157.50
2022-08-02T11:14:04.711Z,151.88
2022-08-02T11:15:07.538Z,151.88
2022-08-02T11:16:10.707Z,157.50
2022-08-02T11:17:04.817Z,157.50
2022-08-02T11:18:04.861Z,163.13
2022-08-02T11:19:06.777Z,168.75
2022-08-02T11:20:05.234Z,168.75
2022-08-02T11:21:04.966Z,168.75
2022-08-02T11:22:05.003Z,163.13
2022-08-02T11:23:05.038Z,163.13
2022-08-02T11:24:05.072Z,163.13
2022-08-02T11:25:05.111Z,168.75
2022-08-02T11:26:11.195Z,168.75
2022-08-02T11:27:05.430Z,168.75
2022-08-02T11:28:05.219Z,168.75
2022-08-02T11:29:05.257Z,168.75
2022-08-02T11:30:05.302Z,168.75
2022-08-02T11:31:05.335Z,168.75
2022-08-02T11:32:05.362Z,168.75
2022-08-02T11:33:05.403Z,174.38
2022-08-02T11:34:09.548Z,174.38
2022-08-02T11:35:05.493Z,174.38
2022-08-02T11:36:05.515Z,180.00
2022-08-02T11:37:05.554Z,185.63
2022-08-02T11:38:05.603Z,185.63
2022-08-02T11:39:05.790Z,191.25
2022-08-02T11:40:09.022Z,191.25
2022-08-02T11:41:09.947Z,196.88
2022-08-02T11:42:05.750Z,202.50
2022-08-02T11:43:05.771Z,202.50
2022-08-02T11:45:05.861Z,213.75
2022-08-02T11:46:05.890Z,219.38
2022-08-02T11:47:05.921Z,225.00
2022-08-02T11:48:06.259Z,225.00
2022-08-02T11:49:08.390Z,219.38
2022-08-02T11:50:06.052Z,208.13
2022-08-02T11:51:06.075Z,202.50
2022-08-02T11:52:06.157Z,196.88
2022-08-02T11:53:06.146Z,196.88
2022-08-02T11:54:06.183Z,202.50
2022-08-02T11:55:06.519Z,196.88
2022-08-02T11:56:06.262Z,196.88
2022-08-02T11:57:06.299Z,191.25
2022-08-02T11:58:06.443Z,185.63
2022-08-02T11:59:06.375Z,185.63
2022-08-02T12:00:06.411Z,180.00
2022-08-02T12:01:06.446Z,174.38
2022-08-02T12:02:06.782Z,174.38
2022-08-02T12:03:06.594Z,174.38
2022-08-02T12:04:06.554Z,180.00
2022-08-02T12:05:08.870Z,191.25
2022-08-02T12:06:10.854Z,202.50
2022-08-02T12:07:07.393Z,213.75
2022-08-02T12:08:06.705Z,219.38
2022-08-02T12:09:17.858Z,219.38
2022-08-02T12:10:06.910Z,219.38
2022-08-02T12:11:06.819Z,213.75
2022-08-02T12:12:06.858Z,213.75
2022-08-02T12:13:06.892Z,213.75
2022-08-02T12:14:06.931Z,208.13
2022-08-02T12:15:06.972Z,208.13
2022-08-02T12:16:08.846Z,208.13
2022-08-02T12:17:07.041Z,208.13
2022-08-02T12:18:07.080Z,208.13
2022-08-02T12:19:07.118Z,208.13
2022-08-02T12:20:07.152Z,208.13
2022-08-02T12:21:07.194Z,208.13
2022-08-02T12:22:07.483Z,202.50
2022-08-02T12:23:07.278Z,196.88
2022-08-02T12:24:07.301Z,191.25
2022-08-02T12:25:07.344Z,185.63
2022-08-02T12:26:07.376Z,180.00
2022-08-02T12:27:07.420Z,174.38
2022-08-02T12:28:07.704Z,168.75
2022-08-02T12:29:07.593Z,163.13
2022-08-02T12:30:07.538Z,157.50
2022-08-02T12:31:07.582Z,151.88
2022-08-02T12:32:07.609Z,146.25
2022-08-02T12:33:07.644Z,140.63
2022-08-02T12:34:07.937Z,140.63
2022-08-02T12:35:07.720Z,146.25
2022-08-02T12:36:07.754Z,151.88
2022-08-02T12:37:07.791Z,157.50
2022-08-02T12:38:07.830Z,157.50
2022-08-02T12:39:07.874Z,168.75
2022-08-02T12:40:07.905Z,168.75
2022-08-02T12:41:31.670Z,174.38
2022-08-02T12:42:07.978Z,180.00
2022-08-02T12:43:08.025Z,185.63
2022-08-02T12:44:08.055Z,185.63
2022-08-02T12:45:08.090Z,191.25
2022-08-02T12:46:08.128Z,191.25
2022-08-02T12:47:08.168Z,191.25
2022-08-02T12:48:08.456Z,191.25
2022-08-02T12:49:17.794Z,191.25
2022-08-02T12:50:08.314Z,191.25
2022-08-02T12:51:08.319Z,191.25
2022-08-02T12:52:08.453Z,191.25
2022-08-02T12:53:08.396Z,191.25
2022-08-02T12:54:08.428Z,191.25
2022-08-02T12:55:08.720Z,185.63
2022-08-02T12:56:08.504Z,185.63
2022-08-02T12:57:08.541Z,185.63
2022-08-02T12:59:08.616Z,185.63
2022-08-02T13:00:08.659Z,180.00
2022-08-02T13:01:08.697Z,174.38
2022-08-02T13:02:09.290Z,174.38
2022-08-02T13:04:07.650Z,174.38
2022-08-02T13:04:13.721Z,174.38
2022-08-02T13:05:08.839Z,168.75
2022-08-02T13:06:32.393Z,168.75
2022-08-02T13:07:08.914Z,168.75
2022-08-02T13:08:08.953Z,168.75
2022-08-02T13:09:09.246Z,168.75
2022-08-02T13:10:09.032Z,168.75
2022-08-02T13:11:09.067Z,168.75
2022-08-02T13:12:09.113Z,174.38
2022-08-02T13:13:09.140Z,174.38
2022-08-02T13:14:09.234Z,180.00
2022-08-02T13:15:12.429Z,180.00
2022-08-02T13:16:09.256Z,180.00
2022-08-02T13:17:09.291Z,185.63
2022-08-02T13:18:09.329Z,185.63
2022-08-02T13:19:09.369Z,185.63
2022-08-02T13:20:10.082Z,185.63
2022-08-02T13:21:09.446Z,185.63
2022-08-02T13:22:10.597Z,191.25
2022-08-02T13:23:09.520Z,191.25
2022-08-02T13:24:23.253Z,196.88
2022-08-02T13:25:09.593Z,196.88
2022-08-02T13:26:09.632Z,202.50